Terminal Aerodrome Forecast
Issued by NWS North Platte, NE

Home | Current Version | Previous Version | Text Only | Print | Product List | Glossary On
Versions: 1 2 3 4 5 6 7 8 9 10 11 12 13 14 15 16 17 18 19 20 21 22 23 24 25 26 27
000
FTUS43 KLBF 240017 AAA
TAFLBF
TAF AMD
KLBF 240017Z 2400/2424 08010KT P6SM VCTS SCT070CB BKN150
      TEMPO 2400/2404 VRB20G35KT 5SM TSRA BKN050CB
     FM240400 05016G23KT 5SM -TSRA SCT025 OVC050CB
     FM240600 04018G25KT 5SM -TSRA OVC015CB
     FM240900 02020G30KT 4SM SHRA OVC008
     FM241700 01022G32KT 1 1/2SM SHRA OVC008
     FM242100 01021G30KT 3SM SHRA OVC010=

USA.gov is the U.S. government's official web portal to all federal, state and local government web resources and services.